This is the latest recevied weather packets stored in our database for station/object SP2JGY-2. If no packets are shown the sender has not sent any weather packets the latest 10 day(s).
| Time | Temp. | Humidity | Pressure | Rain* | Wind** | Luminosity | Snow |
|---|---|---|---|---|---|---|---|
| 1777658980 | 18.33° C | 34% | 1025 hPa | - | - | - | - |
| 1777658080 | 19.44° C | 32% | 1024.8 hPa | - | - | - | - |
| 1777657179 | 20° C | 32% | 1024.7 hPa | - | - | - | - |
| 1777656279 | 21.67° C | 30% | 1024.7 hPa | - | - | - | - |
| 1777655379 | 21.67° C | 30% | 1024.6 hPa | - | - | - | - |
| 1777654479 | 22.78° C | 28% | 1024.5 hPa | - | - | - | - |
| 1777653579 | 22.78° C | 28% | 1024.6 hPa | - | - | - | - |
| 1777652678 | 25° C | 25% | 1024.5 hPa | - | - | - | - |
| 1777651778 | 33.89° C | 14% | 1024.6 hPa | - | - | - | - |
| 1777650878 | 33.89° C | 14% | 1024.7 hPa | - | - | - | - |
| 1777649978 | 34.44° C | 13% | 1024.7 hPa | - | - | - | - |
| 1777649078 | 35° C | 11% | 1024.7 hPa | - | - | - | - |
| 1777648178 | 37.78° C | 11% | 1024.6 hPa | - | - | - | - |
| 1777647278 | 34.44° C | 14% | 1024.8 hPa | - | - | - | - |
| 1777646378 | 33.89° C | 15% | 1024.8 hPa | - | - | - | - |
| 1777645477 | 33.33° C | 14% | 1025 hPa | - | - | - | - |
| 1777644577 | 28.89° C | 17% | 1025.1 hPa | - | - | - | - |
| 1777643677 | 25.56° C | 19% | 1025.3 hPa | - | - | - | - |
| 1777642777 | 26.11° C | 19% | 1025.4 hPa | - | - | - | - |
| 1777640976 | 23.89° C | 22% | 1025.8 hPa | - | - | - | - |
| 1777640076 | 23.33° C | 23% | 1025.9 hPa | - | - | - | - |
| 1777639176 | 22.78° C | 24% | 1026.2 hPa | - | - | - | - |
| 1777638276 | 22.22° C | 25% | 1026.4 hPa | - | - | - | - |
| 1777637376 | 22.22° C | 25% | 1026.4 hPa | - | - | - | - |
| 1777636476 | 22.78° C | 25% | 1026.4 hPa | - | - | - | - |
* Rain since midnight (hover to see other rain measurements)
** Current wind speed in m/s (hover to see current wind gust speed)